sensor_id;sensor_type;location;lat;lon;timestamp;P1;durP1;ratioP1;P2;durP2;ratioP2
74375;SDS011;62812;55.188;61.302;2023-12-28T00:02:00;6.55;;;2.47;;
74375;SDS011;62812;55.188;61.302;2023-12-28T00:04:29;5.93;;;2.30;;
74375;SDS011;62812;55.188;61.302;2023-12-28T00:06:56;4.45;;;1.67;;
74375;SDS011;62812;55.188;61.302;2023-12-28T00:09:23;7.00;;;2.60;;
74375;SDS011;62812;55.188;61.302;2023-12-28T00:11:53;5.32;;;2.05;;
74375;SDS011;62812;55.188;61.302;2023-12-28T00:14:20;7.55;;;2.30;;
74375;SDS011;62812;55.188;61.302;2023-12-28T00:16:46;5.40;;;2.38;;
74375;SDS011;62812;55.188;61.302;2023-12-28T00:19:13;5.53;;;1.90;;
74375;SDS011;62812;55.188;61.302;2023-12-28T00:21:48;2.65;;;1.13;;
74375;SDS011;62812;55.188;61.302;2023-12-28T00:24:15;4.25;;;1.98;;
74375;SDS011;62812;55.188;61.302;2023-12-28T00:26:42;5.93;;;2.03;;
74375;SDS011;62812;55.188;61.302;2023-12-28T00:29:08;6.47;;;2.30;;
74375;SDS011;62812;55.188;61.302;2023-12-28T00:31:35;4.68;;;1.75;;
74375;SDS011;62812;55.188;61.302;2023-12-28T00:34:03;5.75;;;2.25;;
74375;SDS011;62812;55.188;61.302;2023-12-28T00:36:29;6.72;;;2.40;;
74375;SDS011;62812;55.188;61.302;2023-12-28T00:38:57;6.18;;;2.22;;
74375;SDS011;62812;55.188;61.302;2023-12-28T00:41:29;6.00;;;1.92;;
74375;SDS011;62812;55.188;61.302;2023-12-28T00:43:56;5.97;;;2.40;;
74375;SDS011;62812;55.188;61.302;2023-12-28T00:46:22;7.97;;;1.85;;
74375;SDS011;62812;55.188;61.302;2023-12-28T00:48:49;4.75;;;1.70;;
74375;SDS011;62812;55.188;61.302;2023-12-28T00:51:15;5.22;;;1.63;;
74375;SDS011;62812;55.188;61.302;2023-12-28T00:53:42;5.82;;;1.98;;
74375;SDS011;62812;55.188;61.302;2023-12-28T00:56:10;5.78;;;2.00;;
74375;SDS011;62812;55.188;61.302;2023-12-28T00:58:38;5.35;;;2.00;;
74375;SDS011;62812;55.188;61.302;2023-12-28T01:01:06;6.28;;;2.20;;
74375;SDS011;62812;55.188;61.302;2023-12-28T01:03:33;5.40;;;2.30;;
74375;SDS011;62812;55.188;61.302;2023-12-28T01:05:59;5.47;;;2.05;;
74375;SDS011;62812;55.188;61.302;2023-12-28T01:08:26;6.03;;;2.00;;
74375;SDS011;62812;55.188;61.302;2023-12-28T01:10:52;5.00;;;2.08;;
74375;SDS011;62812;55.188;61.302;2023-12-28T01:13:21;5.45;;;2.05;;
74375;SDS011;62812;55.188;61.302;2023-12-28T01:15:47;5.90;;;1.92;;
74375;SDS011;62812;55.188;61.302;2023-12-28T01:18:14;4.45;;;1.63;;
74375;SDS011;62812;55.188;61.302;2023-12-28T01:20:40;6.63;;;2.30;;
74375;SDS011;62812;55.188;61.302;2023-12-28T01:23:08;7.20;;;2.35;;
74375;SDS011;62812;55.188;61.302;2023-12-28T01:25:36;5.25;;;1.83;;
74375;SDS011;62812;55.188;61.302;2023-12-28T01:28:03;5.07;;;2.03;;
74375;SDS011;62812;55.188;61.302;2023-12-28T01:30:32;4.57;;;1.95;;
74375;SDS011;62812;55.188;61.302;2023-12-28T01:32:59;5.32;;;2.00;;
74375;SDS011;62812;55.188;61.302;2023-12-28T01:35:26;7.70;;;2.25;;
74375;SDS011;62812;55.188;61.302;2023-12-28T01:37:52;6.15;;;2.05;;
74375;SDS011;62812;55.188;61.302;2023-12-28T01:40:19;6.40;;;2.05;;
74375;SDS011;62812;55.188;61.302;2023-12-28T01:42:46;5.93;;;2.13;;
74375;SDS011;62812;55.188;61.302;2023-12-28T01:45:15;5.88;;;2.05;;
74375;SDS011;62812;55.188;61.302;2023-12-28T01:47:43;5.63;;;2.13;;
74375;SDS011;62812;55.188;61.302;2023-12-28T01:50:11;6.28;;;2.22;;
74375;SDS011;62812;55.188;61.302;2023-12-28T01:55:31;7.20;;;2.55;;
74375;SDS011;62812;55.188;61.302;2023-12-28T01:57:59;7.15;;;2.30;;
74375;SDS011;62812;55.188;61.302;2023-12-28T02:00:31;4.28;;;1.77;;
74375;SDS011;62812;55.188;61.302;2023-12-28T02:03:02;4.90;;;1.80;;
74375;SDS011;62812;55.188;61.302;2023-12-28T02:05:29;6.00;;;2.10;;
74375;SDS011;62812;55.188;61.302;2023-12-28T02:07:56;5.72;;;2.17;;
74375;SDS011;62812;55.188;61.302;2023-12-28T02:10:24;5.65;;;1.90;;
74375;SDS011;62812;55.188;61.302;2023-12-28T02:12:51;6.15;;;2.20;;
74375;SDS011;62812;55.188;61.302;2023-12-28T02:15:18;6.15;;;2.08;;
74375;SDS011;62812;55.188;61.302;2023-12-28T02:17:47;6.65;;;2.25;;
74375;SDS011;62812;55.188;61.302;2023-12-28T02:20:23;5.15;;;2.00;;
74375;SDS011;62812;55.188;61.302;2023-12-28T02:22:51;6.82;;;2.47;;
74375;SDS011;62812;55.188;61.302;2023-12-28T02:28:07;5.95;;;2.33;;
74375;SDS011;62812;55.188;61.302;2023-12-28T02:30:34;5.95;;;2.70;;
74375;SDS011;62812;55.188;61.302;2023-12-28T02:33:03;6.65;;;2.40;;
74375;SDS011;62812;55.188;61.302;2023-12-28T02:35:36;7.53;;;2.67;;
74375;SDS011;62812;55.188;61.302;2023-12-28T02:38:09;7.18;;;2.67;;
74375;SDS011;62812;55.188;61.302;2023-12-28T02:43:26;7.25;;;2.33;;
74375;SDS011;62812;55.188;61.302;2023-12-28T02:45:53;7.13;;;2.50;;
74375;SDS011;62812;55.188;61.302;2023-12-28T02:48:20;5.00;;;2.22;;
74375;SDS011;62812;55.188;61.302;2023-12-28T02:50:53;10.07;;;2.80;;
74375;SDS011;62812;55.188;61.302;2023-12-28T02:53:39;6.35;;;2.53;;
74375;SDS011;62812;55.188;61.302;2023-12-28T03:01:46;8.40;;;3.05;;
74375;SDS011;62812;55.188;61.302;2023-12-28T03:04:13;11.07;;;3.92;;
74375;SDS011;62812;55.188;61.302;2023-12-28T03:06:41;12.20;;;4.63;;
74375;SDS011;62812;55.188;61.302;2023-12-28T03:09:08;11.82;;;3.38;;
74375;SDS011;62812;55.188;61.302;2023-12-28T03:11:35;10.80;;;2.88;;
74375;SDS011;62812;55.188;61.302;2023-12-28T03:14:03;12.98;;;3.28;;
74375;SDS011;62812;55.188;61.302;2023-12-28T03:16:33;13.05;;;6.13;;
74375;SDS011;62812;55.188;61.302;2023-12-28T03:19:01;12.35;;;4.70;;
74375;SDS011;62812;55.188;61.302;2023-12-28T03:21:28;13.98;;;4.47;;
74375;SDS011;62812;55.188;61.302;2023-12-28T03:23:56;8.98;;;3.47;;
74375;SDS011;62812;55.188;61.302;2023-12-28T03:26:22;13.45;;;3.90;;
74375;SDS011;62812;55.188;61.302;2023-12-28T03:28:53;11.25;;;3.63;;
74375;SDS011;62812;55.188;61.302;2023-12-28T03:31:20;12.48;;;4.00;;
74375;SDS011;62812;55.188;61.302;2023-12-28T03:36:40;8.90;;;3.15;;
74375;SDS011;62812;55.188;61.302;2023-12-28T03:39:08;10.43;;;4.10;;
74375;SDS011;62812;55.188;61.302;2023-12-28T03:41:35;13.07;;;3.67;;
74375;SDS011;62812;55.188;61.302;2023-12-28T03:44:02;8.50;;;3.67;;
74375;SDS011;62812;55.188;61.302;2023-12-28T03:46:29;13.77;;;4.20;;
74375;SDS011;62812;55.188;61.302;2023-12-28T03:48:56;10.68;;;3.92;;
74375;SDS011;62812;55.188;61.302;2023-12-28T04:03:01;11.73;;;4.10;;
74375;SDS011;62812;55.188;61.302;2023-12-28T04:05:29;10.52;;;4.07;;
74375;SDS011;62812;55.188;61.302;2023-12-28T04:07:55;13.68;;;4.70;;
74375;SDS011;62812;55.188;61.302;2023-12-28T04:10:28;11.95;;;4.32;;
74375;SDS011;62812;55.188;61.302;2023-12-28T04:13:00;9.43;;;3.85;;
74375;SDS011;62812;55.188;61.302;2023-12-28T04:15:26;10.80;;;3.92;;
74375;SDS011;62812;55.188;61.302;2023-12-28T04:20:56;11.18;;;4.65;;
74375;SDS011;62812;55.188;61.302;2023-12-28T04:23:23;12.88;;;3.97;;
74375;SDS011;62812;55.188;61.302;2023-12-28T04:25:51;13.63;;;4.55;;
74375;SDS011;62812;55.188;61.302;2023-12-28T04:28:27;10.63;;;4.22;;
74375;SDS011;62812;55.188;61.302;2023-12-28T04:31:02;14.45;;;4.57;;
74375;SDS011;62812;55.188;61.302;2023-12-28T04:33:31;10.30;;;4.20;;
74375;SDS011;62812;55.188;61.302;2023-12-28T04:36:04;16.05;;;4.05;;
74375;SDS011;62812;55.188;61.302;2023-12-28T04:38:31;9.10;;;3.95;;
74375;SDS011;62812;55.188;61.302;2023-12-28T04:41:17;9.10;;;3.47;;
74375;SDS011;62812;55.188;61.302;2023-12-28T04:43:45;10.02;;;4.00;;
74375;SDS011;62812;55.188;61.302;2023-12-28T04:46:18;16.98;;;4.95;;
74375;SDS011;62812;55.188;61.302;2023-12-28T04:48:47;10.00;;;4.15;;
74375;SDS011;62812;55.188;61.302;2023-12-28T04:57:16;9.60;;;4.03;;
74375;SDS011;62812;55.188;61.302;2023-12-28T04:59:47;10.48;;;3.65;;
74375;SDS011;62812;55.188;61.302;2023-12-28T05:02:14;10.98;;;4.20;;
74375;SDS011;62812;55.188;61.302;2023-12-28T05:04:44;7.32;;;3.25;;
74375;SDS011;62812;55.188;61.302;2023-12-28T05:07:20;8.85;;;3.22;;
74375;SDS011;62812;55.188;61.302;2023-12-28T06:06:36;11.43;;;4.03;;
74375;SDS011;62812;55.188;61.302;2023-12-28T06:09:17;9.07;;;3.83;;
74375;SDS011;62812;55.188;61.302;2023-12-28T06:14:44;10.27;;;3.45;;
74375;SDS011;62812;55.188;61.302;2023-12-28T06:20:30;9.75;;;3.42;;
74375;SDS011;62812;55.188;61.302;2023-12-28T06:23:04;10.70;;;3.78;;
74375;SDS011;62812;55.188;61.302;2023-12-28T06:25:37;8.10;;;3.03;;
74375;SDS011;62812;55.188;61.302;2023-12-28T06:28:07;10.10;;;3.67;;
74375;SDS011;62812;55.188;61.302;2023-12-28T06:30:41;10.10;;;3.65;;
74375;SDS011;62812;55.188;61.302;2023-12-28T06:33:12;7.85;;;3.15;;
74375;SDS011;62812;55.188;61.302;2023-12-28T06:35:52;10.45;;;3.53;;
74375;SDS011;62812;55.188;61.302;2023-12-28T06:44:29;8.25;;;3.20;;
74375;SDS011;62812;55.188;61.302;2023-12-28T06:47:04;7.70;;;2.83;;
74375;SDS011;62812;55.188;61.302;2023-12-28T06:49:38;9.65;;;2.72;;
74375;SDS011;62812;55.188;61.302;2023-12-28T06:52:12;10.32;;;3.47;;
74375;SDS011;62812;55.188;61.302;2023-12-28T06:54:45;9.35;;;3.50;;
74375;SDS011;62812;55.188;61.302;2023-12-28T06:58:00;5.57;;;2.33;;
74375;SDS011;62812;55.188;61.302;2023-12-28T07:50:31;10.55;;;3.45;;
74375;SDS011;62812;55.188;61.302;2023-12-28T07:56:01;7.63;;;2.90;;
74375;SDS011;62812;55.188;61.302;2023-12-28T07:59:10;10.32;;;3.85;;
74375;SDS011;62812;55.188;61.302;2023-12-28T08:02:07;13.32;;;3.58;;
74375;SDS011;62812;55.188;61.302;2023-12-28T08:04:42;8.52;;;3.00;;
74375;SDS011;62812;55.188;61.302;2023-12-28T08:44:45;8.30;;;3.35;;
74375;SDS011;62812;55.188;61.302;2023-12-28T08:47:13;15.68;;;4.28;;
74375;SDS011;62812;55.188;61.302;2023-12-28T08:50:08;8.82;;;3.65;;
74375;SDS011;62812;55.188;61.302;2023-12-28T08:52:46;10.25;;;4.15;;
74375;SDS011;62812;55.188;61.302;2023-12-28T08:55:20;10.40;;;4.28;;
74375;SDS011;62812;55.188;61.302;2023-12-28T08:58:01;9.45;;;3.83;;
74375;SDS011;62812;55.188;61.302;2023-12-28T09:06:13;12.55;;;3.47;;
74375;SDS011;62812;55.188;61.302;2023-12-28T09:09:04;8.00;;;2.78;;
74375;SDS011;62812;55.188;61.302;2023-12-28T09:12:21;10.70;;;3.53;;
74375;SDS011;62812;55.188;61.302;2023-12-28T09:14:50;9.27;;;3.65;;
74375;SDS011;62812;55.188;61.302;2023-12-28T09:17:21;9.20;;;3.75;;
74375;SDS011;62812;55.188;61.302;2023-12-28T09:26:34;9.43;;;3.60;;
74375;SDS011;62812;55.188;61.302;2023-12-28T09:29:35;9.13;;;3.50;;
74375;SDS011;62812;55.188;61.302;2023-12-28T09:32:24;10.82;;;4.03;;
74375;SDS011;62812;55.188;61.302;2023-12-28T09:34:56;10.65;;;4.22;;
74375;SDS011;62812;55.188;61.302;2023-12-28T09:37:32;11.82;;;4.43;;
74375;SDS011;62812;55.188;61.302;2023-12-28T09:40:06;11.13;;;4.65;;
74375;SDS011;62812;55.188;61.302;2023-12-28T10:24:05;13.00;;;6.25;;
74375;SDS011;62812;55.188;61.302;2023-12-28T11:45:33;19.48;;;8.15;;
74375;SDS011;62812;55.188;61.302;2023-12-28T11:48:04;19.25;;;9.20;;
74375;SDS011;62812;55.188;61.302;2023-12-28T11:50:34;23.15;;;8.63;;
74375;SDS011;62812;55.188;61.302;2023-12-28T11:53:04;25.30;;;9.65;;
74375;SDS011;62812;55.188;61.302;2023-12-28T11:55:31;45.50;;;14.07;;
74375;SDS011;62812;55.188;61.302;2023-12-28T11:57:59;51.55;;;17.40;;
74375;SDS011;62812;55.188;61.302;2023-12-28T12:27:25;81.40;;;28.80;;
74375;SDS011;62812;55.188;61.302;2023-12-28T12:30:28;80.00;;;25.55;;
74375;SDS011;62812;55.188;61.302;2023-12-28T12:51:44;10.25;;;4.45;;
74375;SDS011;62812;55.188;61.302;2023-12-28T12:54:55;15.43;;;5.80;;
74375;SDS011;62812;55.188;61.302;2023-12-28T12:57:35;11.65;;;5.03;;
74375;SDS011;62812;55.188;61.302;2023-12-28T13:00:09;15.00;;;5.45;;
74375;SDS011;62812;55.188;61.302;2023-12-28T13:02:39;13.55;;;4.90;;
74375;SDS011;62812;55.188;61.302;2023-12-28T13:05:07;11.15;;;5.95;;
74375;SDS011;62812;55.188;61.302;2023-12-28T13:07:37;15.57;;;6.10;;
74375;SDS011;62812;55.188;61.302;2023-12-28T13:10:12;15.00;;;5.93;;
74375;SDS011;62812;55.188;61.302;2023-12-28T13:12:42;14.65;;;6.70;;
74375;SDS011;62812;55.188;61.302;2023-12-28T13:15:10;14.15;;;6.28;;
74375;SDS011;62812;55.188;61.302;2023-12-28T13:17:38;13.90;;;6.30;;
74375;SDS011;62812;55.188;61.302;2023-12-28T13:20:18;13.30;;;6.13;;
74375;SDS011;62812;55.188;61.302;2023-12-28T13:22:48;11.77;;;5.32;;
74375;SDS011;62812;55.188;61.302;2023-12-28T13:25:27;12.98;;;5.45;;
74375;SDS011;62812;55.188;61.302;2023-12-28T13:27:57;13.23;;;5.53;;
74375;SDS011;62812;55.188;61.302;2023-12-28T13:30:28;15.52;;;5.95;;
74375;SDS011;62812;55.188;61.302;2023-12-28T13:33:02;13.20;;;5.97;;
74375;SDS011;62812;55.188;61.302;2023-12-28T13:35:50;12.15;;;4.90;;
74375;SDS011;62812;55.188;61.302;2023-12-28T13:38:30;12.07;;;4.85;;
74375;SDS011;62812;55.188;61.302;2023-12-28T13:41:05;12.30;;;4.72;;
74375;SDS011;62812;55.188;61.302;2023-12-28T13:43:55;10.50;;;5.15;;
74375;SDS011;62812;55.188;61.302;2023-12-28T13:46:39;10.63;;;4.88;;
74375;SDS011;62812;55.188;61.302;2023-12-28T13:49:29;11.65;;;4.65;;
74375;SDS011;62812;55.188;61.302;2023-12-28T13:51:59;13.20;;;4.57;;
74375;SDS011;62812;55.188;61.302;2023-12-28T14:00:33;16.95;;;6.78;;
74375;SDS011;62812;55.188;61.302;2023-12-28T14:03:11;20.92;;;8.07;;
74375;SDS011;62812;55.188;61.302;2023-12-28T14:06:14;31.38;;;10.80;;
74375;SDS011;62812;55.188;61.302;2023-12-28T14:08:52;51.88;;;15.55;;
74375;SDS011;62812;55.188;61.302;2023-12-28T14:20:21;36.63;;;8.75;;
74375;SDS011;62812;55.188;61.302;2023-12-28T14:23:30;24.23;;;6.38;;
74375;SDS011;62812;55.188;61.302;2023-12-28T14:26:09;15.07;;;5.45;;
74375;SDS011;62812;55.188;61.302;2023-12-28T14:28:53;12.65;;;4.47;;
74375;SDS011;62812;55.188;61.302;2023-12-28T14:32:02;15.00;;;6.70;;
74375;SDS011;62812;55.188;61.302;2023-12-28T14:50:20;41.45;;;11.43;;
74375;SDS011;62812;55.188;61.302;2023-12-28T14:52:47;43.97;;;12.00;;
74375;SDS011;62812;55.188;61.302;2023-12-28T14:55:21;36.67;;;10.73;;
74375;SDS011;62812;55.188;61.302;2023-12-28T14:57:59;41.80;;;8.90;;
74375;SDS011;62812;55.188;61.302;2023-12-28T15:00:34;37.42;;;9.18;;
74375;SDS011;62812;55.188;61.302;2023-12-28T15:03:04;28.35;;;8.40;;
74375;SDS011;62812;55.188;61.302;2023-12-28T15:11:17;23.23;;;6.82;;
74375;SDS011;62812;55.188;61.302;2023-12-28T15:13:47;28.00;;;7.18;;
74375;SDS011;62812;55.188;61.302;2023-12-28T15:16:28;31.27;;;6.40;;
74375;SDS011;62812;55.188;61.302;2023-12-28T15:21:44;28.58;;;7.78;;
74375;SDS011;62812;55.188;61.302;2023-12-28T15:24:26;25.60;;;6.90;;
74375;SDS011;62812;55.188;61.302;2023-12-28T15:26:54;25.48;;;6.07;;
74375;SDS011;62812;55.188;61.302;2023-12-28T15:29:24;20.88;;;5.90;;
74375;SDS011;62812;55.188;61.302;2023-12-28T15:34:27;23.63;;;6.80;;
74375;SDS011;62812;55.188;61.302;2023-12-28T15:37:41;39.83;;;8.50;;
74375;SDS011;62812;55.188;61.302;2023-12-28T15:40:13;18.50;;;5.68;;
74375;SDS011;62812;55.188;61.302;2023-12-28T15:42:44;31.17;;;8.45;;
74375;SDS011;62812;55.188;61.302;2023-12-28T15:45:18;28.33;;;8.73;;
74375;SDS011;62812;55.188;61.302;2023-12-28T15:47:46;15.15;;;5.72;;
74375;SDS011;62812;55.188;61.302;2023-12-28T15:50:13;35.25;;;10.43;;
74375;SDS011;62812;55.188;61.302;2023-12-28T15:52:41;41.25;;;10.98;;
74375;SDS011;62812;55.188;61.302;2023-12-28T15:55:12;34.75;;;11.10;;
74375;SDS011;62812;55.188;61.302;2023-12-28T15:57:39;29.77;;;9.05;;
74375;SDS011;62812;55.188;61.302;2023-12-28T16:00:06;36.78;;;10.93;;
74375;SDS011;62812;55.188;61.302;2023-12-28T16:02:39;34.30;;;12.32;;
74375;SDS011;62812;55.188;61.302;2023-12-28T16:05:11;32.40;;;11.27;;
74375;SDS011;62812;55.188;61.302;2023-12-28T16:07:50;44.92;;;15.40;;
74375;SDS011;62812;55.188;61.302;2023-12-28T16:12:49;28.52;;;10.57;;
74375;SDS011;62812;55.188;61.302;2023-12-28T16:15:19;22.88;;;8.00;;
74375;SDS011;62812;55.188;61.302;2023-12-28T16:18:06;26.10;;;9.77;;
74375;SDS011;62812;55.188;61.302;2023-12-28T16:20:40;35.17;;;10.82;;
74375;SDS011;62812;55.188;61.302;2023-12-28T16:27:01;22.85;;;8.57;;
74375;SDS011;62812;55.188;61.302;2023-12-28T16:32:46;25.02;;;8.60;;
74375;SDS011;62812;55.188;61.302;2023-12-28T16:35:17;28.88;;;9.45;;
74375;SDS011;62812;55.188;61.302;2023-12-28T16:37:53;24.05;;;6.88;;
74375;SDS011;62812;55.188;61.302;2023-12-28T16:40:27;19.42;;;5.43;;
74375;SDS011;62812;55.188;61.302;2023-12-28T16:45:55;22.45;;;8.60;;
74375;SDS011;62812;55.188;61.302;2023-12-28T16:48:24;23.05;;;7.63;;
74375;SDS011;62812;55.188;61.302;2023-12-28T16:50:51;9.38;;;3.88;;
74375;SDS011;62812;55.188;61.302;2023-12-28T16:56:46;18.50;;;6.30;;
74375;SDS011;62812;55.188;61.302;2023-12-28T16:59:16;22.55;;;6.85;;
74375;SDS011;62812;55.188;61.302;2023-12-28T17:02:06;16.73;;;6.40;;
74375;SDS011;62812;55.188;61.302;2023-12-28T17:04:38;19.77;;;7.40;;
74375;SDS011;62812;55.188;61.302;2023-12-28T17:07:32;16.70;;;6.35;;
74375;SDS011;62812;55.188;61.302;2023-12-28T17:10:05;16.33;;;6.18;;
74375;SDS011;62812;55.188;61.302;2023-12-28T17:16:34;17.33;;;5.65;;
74375;SDS011;62812;55.188;61.302;2023-12-28T17:21:55;13.55;;;5.07;;
74375;SDS011;62812;55.188;61.302;2023-12-28T17:24:29;7.68;;;2.70;;
74375;SDS011;62812;55.188;61.302;2023-12-28T17:27:00;9.15;;;3.42;;
74375;SDS011;62812;55.188;61.302;2023-12-28T17:29:36;5.10;;;2.22;;
74375;SDS011;62812;55.188;61.302;2023-12-28T17:32:06;10.32;;;3.80;;
74375;SDS011;62812;55.188;61.302;2023-12-28T17:37:42;3.20;;;1.30;;
74375;SDS011;62812;55.188;61.302;2023-12-28T17:40:28;6.85;;;3.08;;
74375;SDS011;62812;55.188;61.302;2023-12-28T17:42:57;8.25;;;3.03;;
74375;SDS011;62812;55.188;61.302;2023-12-28T17:45:33;11.23;;;5.00;;
74375;SDS011;62812;55.188;61.302;2023-12-28T17:48:07;8.50;;;3.47;;
74375;SDS011;62812;55.188;61.302;2023-12-28T17:53:17;5.60;;;2.58;;
74375;SDS011;62812;55.188;61.302;2023-12-28T17:55:44;7.72;;;3.08;;
74375;SDS011;62812;55.188;61.302;2023-12-28T17:58:30;9.57;;;2.83;;
74375;SDS011;62812;55.188;61.302;2023-12-28T18:00:57;7.13;;;2.65;;
74375;SDS011;62812;55.188;61.302;2023-12-28T18:03:25;8.77;;;4.05;;
74375;SDS011;62812;55.188;61.302;2023-12-28T18:05:54;5.43;;;2.35;;
74375;SDS011;62812;55.188;61.302;2023-12-28T18:14:03;5.68;;;2.50;;
74375;SDS011;62812;55.188;61.302;2023-12-28T18:16:31;4.85;;;1.80;;
74375;SDS011;62812;55.188;61.302;2023-12-28T18:19:00;4.85;;;1.88;;
74375;SDS011;62812;55.188;61.302;2023-12-28T18:21:29;5.70;;;2.10;;
74375;SDS011;62812;55.188;61.302;2023-12-28T18:26:50;3.33;;;1.02;;
74375;SDS011;62812;55.188;61.302;2023-12-28T18:29:17;5.53;;;2.65;;
74375;SDS011;62812;55.188;61.302;2023-12-28T18:32:02;4.63;;;2.15;;
74375;SDS011;62812;55.188;61.302;2023-12-28T18:34:37;5.30;;;1.90;;
74375;SDS011;62812;55.188;61.302;2023-12-28T18:37:04;6.32;;;2.33;;
74375;SDS011;62812;55.188;61.302;2023-12-28T18:39:30;4.78;;;1.92;;
74375;SDS011;62812;55.188;61.302;2023-12-28T18:41:59;5.05;;;1.90;;
74375;SDS011;62812;55.188;61.302;2023-12-28T18:44:27;3.90;;;1.60;;
74375;SDS011;62812;55.188;61.302;2023-12-28T18:47:01;2.13;;;1.02;;
74375;SDS011;62812;55.188;61.302;2023-12-28T18:49:28;1.80;;;0.90;;
74375;SDS011;62812;55.188;61.302;2023-12-28T18:51:55;3.60;;;1.73;;
74375;SDS011;62812;55.188;61.302;2023-12-28T18:54:21;3.08;;;1.30;;
74375;SDS011;62812;55.188;61.302;2023-12-28T18:56:48;5.07;;;2.15;;
74375;SDS011;62812;55.188;61.302;2023-12-28T18:59:25;4.65;;;1.83;;
74375;SDS011;62812;55.188;61.302;2023-12-28T19:01:53;5.07;;;2.00;;
74375;SDS011;62812;55.188;61.302;2023-12-28T19:04:23;5.57;;;1.98;;
74375;SDS011;62812;55.188;61.302;2023-12-28T19:06:54;4.60;;;1.85;;
74375;SDS011;62812;55.188;61.302;2023-12-28T19:09:21;3.95;;;1.30;;
74375;SDS011;62812;55.188;61.302;2023-12-28T19:11:54;5.40;;;1.75;;
74375;SDS011;62812;55.188;61.302;2023-12-28T19:14:24;5.05;;;1.42;;
74375;SDS011;62812;55.188;61.302;2023-12-28T19:16:51;2.90;;;1.15;;
74375;SDS011;62812;55.188;61.302;2023-12-28T19:19:22;4.50;;;1.65;;
74375;SDS011;62812;55.188;61.302;2023-12-28T19:21:56;3.85;;;1.48;;
74375;SDS011;62812;55.188;61.302;2023-12-28T19:24:23;3.83;;;1.10;;
74375;SDS011;62812;55.188;61.302;2023-12-28T19:26:49;2.90;;;1.10;;
74375;SDS011;62812;55.188;61.302;2023-12-28T19:29:16;3.65;;;1.55;;
74375;SDS011;62812;55.188;61.302;2023-12-28T19:31:56;3.10;;;1.13;;
74375;SDS011;62812;55.188;61.302;2023-12-28T19:34:25;3.72;;;1.33;;
74375;SDS011;62812;55.188;61.302;2023-12-28T19:36:52;4.00;;;1.60;;
74375;SDS011;62812;55.188;61.302;2023-12-28T19:39:19;3.70;;;1.48;;
74375;SDS011;62812;55.188;61.302;2023-12-28T19:41:46;5.18;;;1.88;;
74375;SDS011;62812;55.188;61.302;2023-12-28T19:44:12;2.38;;;1.20;;
74375;SDS011;62812;55.188;61.302;2023-12-28T19:46:39;11.35;;;1.25;;
74375;SDS011;62812;55.188;61.302;2023-12-28T19:49:07;3.30;;;1.23;;
74375;SDS011;62812;55.188;61.302;2023-12-28T19:51:34;4.18;;;1.38;;
74375;SDS011;62812;55.188;61.302;2023-12-28T19:54:01;6.38;;;1.88;;
74375;SDS011;62812;55.188;61.302;2023-12-28T19:56:27;3.83;;;1.25;;
74375;SDS011;62812;55.188;61.302;2023-12-28T19:58:56;4.13;;;1.65;;
74375;SDS011;62812;55.188;61.302;2023-12-28T20:01:24;4.50;;;1.50;;
74375;SDS011;62812;55.188;61.302;2023-12-28T20:03:50;2.05;;;0.82;;
74375;SDS011;62812;55.188;61.302;2023-12-28T20:06:19;2.53;;;1.30;;
74375;SDS011;62812;55.188;61.302;2023-12-28T20:08:46;2.15;;;0.90;;
74375;SDS011;62812;55.188;61.302;2023-12-28T20:11:13;3.80;;;1.42;;
74375;SDS011;62812;55.188;61.302;2023-12-28T20:13:40;2.92;;;1.13;;
74375;SDS011;62812;55.188;61.302;2023-12-28T20:16:07;4.47;;;1.30;;
74375;SDS011;62812;55.188;61.302;2023-12-28T20:18:33;4.05;;;1.30;;
74375;SDS011;62812;55.188;61.302;2023-12-28T20:21:00;1.25;;;0.50;;
74375;SDS011;62812;55.188;61.302;2023-12-28T20:23:28;2.70;;;1.00;;
74375;SDS011;62812;55.188;61.302;2023-12-28T20:25:55;2.28;;;1.02;;
74375;SDS011;62812;55.188;61.302;2023-12-28T20:28:22;2.72;;;1.13;;
74375;SDS011;62812;55.188;61.302;2023-12-28T20:30:49;3.65;;;1.63;;
74375;SDS011;62812;55.188;61.302;2023-12-28T20:33:15;2.20;;;0.80;;
74375;SDS011;62812;55.188;61.302;2023-12-28T20:35:42;1.88;;;0.80;;
74375;SDS011;62812;55.188;61.302;2023-12-28T20:38:09;3.15;;;1.10;;
74375;SDS011;62812;55.188;61.302;2023-12-28T20:40:37;5.72;;;1.85;;
74375;SDS011;62812;55.188;61.302;2023-12-28T20:43:03;3.53;;;1.38;;
74375;SDS011;62812;55.188;61.302;2023-12-28T20:45:30;3.63;;;1.27;;
74375;SDS011;62812;55.188;61.302;2023-12-28T20:47:57;2.80;;;1.08;;
74375;SDS011;62812;55.188;61.302;2023-12-28T20:50:23;3.88;;;1.13;;
74375;SDS011;62812;55.188;61.302;2023-12-28T20:52:50;5.97;;;1.73;;
74375;SDS011;62812;55.188;61.302;2023-12-28T20:55:17;3.15;;;1.30;;
74375;SDS011;62812;55.188;61.302;2023-12-28T20:57:45;5.47;;;2.40;;
74375;SDS011;62812;55.188;61.302;2023-12-28T21:00:12;4.97;;;2.17;;
74375;SDS011;62812;55.188;61.302;2023-12-28T21:02:39;3.72;;;1.58;;
74375;SDS011;62812;55.188;61.302;2023-12-28T21:05:06;2.65;;;1.42;;
74375;SDS011;62812;55.188;61.302;2023-12-28T21:07:33;4.05;;;1.77;;
74375;SDS011;62812;55.188;61.302;2023-12-28T21:09:59;3.40;;;1.20;;
74375;SDS011;62812;55.188;61.302;2023-12-28T21:12:27;7.05;;;1.92;;
74375;SDS011;62812;55.188;61.302;2023-12-28T21:15:00;4.15;;;1.38;;
74375;SDS011;62812;55.188;61.302;2023-12-28T21:17:26;4.22;;;1.60;;
74375;SDS011;62812;55.188;61.302;2023-12-28T21:19:53;4.78;;;1.48;;
74375;SDS011;62812;55.188;61.302;2023-12-28T21:22:20;3.03;;;1.40;;
74375;SDS011;62812;55.188;61.302;2023-12-28T21:24:47;1.73;;;0.73;;
74375;SDS011;62812;55.188;61.302;2023-12-28T21:27:15;2.70;;;1.10;;
74375;SDS011;62812;55.188;61.302;2023-12-28T21:29:42;4.00;;;1.63;;
74375;SDS011;62812;55.188;61.302;2023-12-28T21:32:11;4.75;;;1.92;;
74375;SDS011;62812;55.188;61.302;2023-12-28T21:34:38;2.92;;;1.38;;
74375;SDS011;62812;55.188;61.302;2023-12-28T21:37:05;5.28;;;1.83;;
74375;SDS011;62812;55.188;61.302;2023-12-28T21:39:31;8.30;;;1.83;;
74375;SDS011;62812;55.188;61.302;2023-12-28T21:42:05;4.10;;;1.63;;
74375;SDS011;62812;55.188;61.302;2023-12-28T21:44:33;4.68;;;1.50;;
74375;SDS011;62812;55.188;61.302;2023-12-28T21:46:59;5.80;;;1.88;;
74375;SDS011;62812;55.188;61.302;2023-12-28T21:49:27;3.47;;;1.30;;
74375;SDS011;62812;55.188;61.302;2023-12-28T21:51:55;5.03;;;1.85;;
74375;SDS011;62812;55.188;61.302;2023-12-28T21:54:23;4.18;;;1.98;;
74375;SDS011;62812;55.188;61.302;2023-12-28T21:56:50;4.47;;;1.60;;
74375;SDS011;62812;55.188;61.302;2023-12-28T21:59:17;3.72;;;2.00;;
74375;SDS011;62812;55.188;61.302;2023-12-28T22:04:35;6.05;;;2.95;;
74375;SDS011;62812;55.188;61.302;2023-12-28T22:07:02;3.15;;;1.15;;
74375;SDS011;62812;55.188;61.302;2023-12-28T22:09:29;4.72;;;2.03;;
74375;SDS011;62812;55.188;61.302;2023-12-28T22:12:03;5.60;;;2.03;;
74375;SDS011;62812;55.188;61.302;2023-12-28T22:14:30;6.55;;;2.05;;
74375;SDS011;62812;55.188;61.302;2023-12-28T22:16:57;5.40;;;1.42;;
74375;SDS011;62812;55.188;61.302;2023-12-28T22:19:24;6.30;;;2.38;;
74375;SDS011;62812;55.188;61.302;2023-12-28T22:21:53;7.55;;;2.85;;
74375;SDS011;62812;55.188;61.302;2023-12-28T22:24:20;5.68;;;2.28;;
74375;SDS011;62812;55.188;61.302;2023-12-28T22:26:46;4.40;;;1.98;;
74375;SDS011;62812;55.188;61.302;2023-12-28T22:29:13;7.03;;;2.72;;
74375;SDS011;62812;55.188;61.302;2023-12-28T22:31:45;10.38;;;2.80;;